Aérodrome :







RETROUVEZ-NOUS SUR...

 
LOGIN :

S'inscrire | Disclaimer

   EN    FR    IT 

 









Légende :    VFR   VFR Marginal   IFR   IFR Intensif   IFR Très Intensif
Visi : 
Plafond : 
>= 8 km
>= 3000ft
5 à 8 km
1000 à 3000 ft
1500m à 5 km
500 à 1000 ft
800 à 1500m
200 à 500 ft
< 800m
< 200 ft
Symboles :   Orages  Brouillard  Fortes neiges  Fortes précipitations  Vent > 20 kt






- Altitude de l'aérodrome : 342 ft


KCON - Concord Municipal

DERNIER METAR :
  • 100651Z AUTO 21008KT 10SM -RA FEW023 SCT065 BKN100 09/08 A2961 RMK AO2 RAB33 SLP030 P0000 T00940083

METARs EXPIRÉS :
  • 100611Z AUTO 20009KT 4SM BR OVC021 09/08 A2961 RMK AO2 T00890083
  • 100551Z AUTO 17006KT 3/4SM BR OVC021 07/07 A2961 RMK AO2 RAE27 SLP030 P0000 60017 T00670067 10089 20061 56015
  • 100527Z AUTO 14005KT 1/2SM FG OVC022 07/07 A2961 RMK AO2 RAE27 P0000 T00720072
  • 100507Z AUTO 14005KT 1SM -RA BR FEW013 BKN022 OVC085 08/08 A2962 RMK AO2 P0000 T00830078
  • 100451Z AUTO 15005KT 2SM -RA BR FEW012 BKN023 OVC085 08/08 A2962 RMK AO2 SLP032 P0003 T00830078 400891011
  • 100440Z AUTO 15005KT 2SM -RA BR SCT010 BKN046 OVC080 08/08 A2962 RMK AO2 VIS 1 1/2V3 P0002 T00830083
  • 100425Z AUTO 15005KT 2SM -RA BR SCT010 BKN024 OVC050 08/08 A2962 RMK AO2 P0002 T00830083

TAF KCON
Valide du 10 à 07h jusqu'au 11 à 06h UTC


100651Z 1007/1106 17006KT 6SM -RA BR SCT009 BKN020 WS020/22045KT
FM101100 20007KT 6SM BR OVC015 WS020/24045KT
FM101800 24008KT P6SM BKN015 WS020/24035KT
FM102200 26009KT P6SM OVC040



MET'MAP, la Météo Aéronautique d'un coup d'oeil ! - Copyright ORBIFLY Décembre 2007 - Disclaimer

ORBIFLY MET'MAP TEAM :

Programmation & Développement : Alexandra Zaïnal
Sur une idée originale de : Baudouin d'Aumeries
Assistance à la programmation : Marc-Olivier Méhu
Soutien technique & logistique : Manuel Goepfert

Contact : metmap@orbifly.com




SOURCES & CREDITS :

   NOAA